Time;durP1;ratioP1;P1;durP2;ratioP2;P2;SDS_P1;SDS_P2;PMS_P1;PMS_P2;Temp;Humidity;BMP_temperature;BMP_pressure;BME280_temperature;BME280_humidity;BME280_pressure;Samples;Min_cycle;Max_cycle;Signal;HPM_P1;HPM_P2
2022/05/19 00:01:04;;;;;;;12.07;10.97;;;;;;;;;;5095637;28;20933;-74
2022/05/19 00:03:33;;;;;;;15.90;12.60;;;;;;;;;;5096158;28;20477;-74
2022/05/19 00:06:00;;;;;;;12.03;10.83;;;;;;;;;;5095606;28;20454;-74
2022/05/19 00:08:28;;;;;;;14.67;10.73;;;;;;;;;;5095666;28;20486;-74
2022/05/19 00:10:56;;;;;;;13.07;11.77;;;;;;;;;;5095811;28;20451;-73
2022/05/19 00:13:24;;;;;;;12.30;10.70;;;;;;;;;;5095560;28;20450;-74
2022/05/19 00:15:51;;;;;;;15.30;11.10;;;;;;;;;;5095669;28;20439;-74
2022/05/19 00:18:18;;;;;;;10.93;9.80;;;;;;;;;;5095391;28;20434;-74
2022/05/19 00:20:47;;;;;;;11.43;10.23;;;;;;;;;;5095037;28;20485;-74
2022/05/19 00:23:15;;;;;;;10.10;9.27;;;;;;;;;;5095339;28;20780;-74
2022/05/19 00:25:42;;;;;;;11.00;9.73;;;;;;;;;;5094996;28;20439;-74
2022/05/19 00:28:10;;;;;;;18.07;9.90;;;;;;;;;;5095326;28;20458;-75
2022/05/19 00:30:37;;;;;;;12.20;9.13;;;;;;;;;;5095214;28;20504;-75
2022/05/19 00:33:05;;;;;;;11.03;9.00;;;;;;;;;;5095169;28;20518;-74
2022/05/19 00:35:32;;;;;;;9.33;8.43;;;;;;;;;;5094777;28;20457;-75
2022/05/19 00:38:00;;;;;;;8.03;7.33;;;;;;;;;;5094915;28;20438;-74
2022/05/19 00:40:28;;;;;;;8.30;7.33;;;;;;;;;;5094934;28;20481;-74
2022/05/19 00:42:55;;;;;;;8.00;7.40;;;;;;;;;;5094517;28;20439;-75
2022/05/19 00:45:23;;;;;;;9.77;8.30;;;;;;;;;;5094925;28;20872;-75
2022/05/19 00:47:52;;;;;;;9.00;8.17;;;;;;;;;;5094306;28;20576;-74
2022/05/19 00:50:22;;;;;;;8.73;7.83;;;;;;;;;;5094516;28;20938;-74
2022/05/19 00:52:51;;;;;;;8.17;6.93;;;;;;;;;;5094628;28;20935;-75
2022/05/19 00:55:20;;;;;;;9.37;8.50;;;;;;;;;;5094813;28;20442;-75
2022/05/19 00:57:53;;;;;;;15.67;7.70;;;;;;;;;;5094577;28;20851;-75
2022/05/19 01:00:21;;;;;;;8.93;7.80;;;;;;;;;;5094604;28;20473;-75
2022/05/19 01:02:50;;;;;;;8.43;7.63;;;;;;;;;;5094455;28;20435;-74
2022/05/19 01:05:20;;;;;;;9.40;8.50;;;;;;;;;;5094671;28;20524;-75
2022/05/19 01:07:49;;;;;;;11.60;8.27;;;;;;;;;;5094378;28;20529;-75
2022/05/19 01:10:17;;;;;;;8.70;7.70;;;;;;;;;;5094399;28;20469;-74
2022/05/19 01:12:48;;;;;;;8.63;7.83;;;;;;;;;;5094227;28;20446;-74
2022/05/19 01:15:15;;;;;;;8.93;7.13;;;;;;;;;;5094549;28;20437;-75
2022/05/19 01:17:43;;;;;;;9.33;8.27;;;;;;;;;;5093830;28;20453;-74
2022/05/19 01:20:14;;;;;;;8.83;7.93;;;;;;;;;;5094159;28;20515;-75
2022/05/19 01:22:45;;;;;;;9.40;8.50;;;;;;;;;;5094375;28;20437;-74
2022/05/19 01:25:18;;;;;;;9.73;8.13;;;;;;;;;;5094608;28;20439;-74
2022/05/19 01:27:47;;;;;;;8.67;7.97;;;;;;;;;;5093771;28;20460;-74
2022/05/19 01:30:14;;;;;;;8.10;7.47;;;;;;;;;;5094061;28;20445;-74
2022/05/19 01:32:41;;;;;;;14.97;7.90;;;;;;;;;;5093662;28;20439;-74
2022/05/19 01:35:10;;;;;;;9.87;8.97;;;;;;;;;;5093673;28;20442;-74
2022/05/19 01:37:37;;;;;;;8.33;7.63;;;;;;;;;;5093940;28;20448;-74
2022/05/19 01:40:06;;;;;;;8.50;7.70;;;;;;;;;;5093941;28;20484;-74
2022/05/19 01:42:40;;;;;;;8.80;7.90;;;;;;;;;;5094023;28;20834;-74
2022/05/19 01:45:13;;;;;;;10.43;7.63;;;;;;;;;;5094405;28;20468;-75
2022/05/19 01:47:44;;;;;;;9.20;7.90;;;;;;;;;;5093920;28;20486;-74
2022/05/19 01:50:17;;;;;;;8.87;7.87;;;;;;;;;;5094717;28;20418;-75
2022/05/19 01:52:48;;;;;;;8.37;7.57;;;;;;;;;;5093761;28;20515;-75
2022/05/19 01:55:18;;;;;;;8.10;7.30;;;;;;;;;;5093166;28;20420;-75
2022/05/19 01:57:49;;;;;;;8.00;7.37;;;;;;;;;;5093682;28;20429;-74
2022/05/19 02:00:18;;;;;;;7.80;7.20;;;;;;;;;;5093742;28;20461;-74
2022/05/19 02:02:48;;;;;;;7.83;7.20;;;;;;;;;;5093271;28;20468;-74
2022/05/19 02:05:18;;;;;;;8.43;7.63;;;;;;;;;;5093647;28;20472;-74
2022/05/19 02:07:46;;;;;;;8.93;7.70;;;;;;;;;;5093634;28;20793;-74
2022/05/19 02:10:16;;;;;;;7.53;6.87;;;;;;;;;;5093659;28;20441;-74
2022/05/19 02:12:44;;;;;;;8.20;7.50;;;;;;;;;;5093178;28;20452;-74
2022/05/19 02:15:13;;;;;;;8.80;8.00;;;;;;;;;;5093371;28;20437;-75
2022/05/19 02:17:43;;;;;;;10.00;8.10;;;;;;;;;;5093636;28;20460;-74
2022/05/19 02:20:12;;;;;;;8.60;7.80;;;;;;;;;;5093184;28;20475;-75
2022/05/19 02:22:41;;;;;;;9.20;8.40;;;;;;;;;;5093464;28;20496;-74
2022/05/19 02:25:12;;;;;;;9.77;8.77;;;;;;;;;;5093958;28;20493;-74
2022/05/19 02:27:41;;;;;;;9.20;8.30;;;;;;;;;;5093930;28;20446;-74
2022/05/19 02:30:10;;;;;;;9.83;8.83;;;;;;;;;;5093106;28;20454;-74
2022/05/19 02:32:37;;;;;;;12.00;9.17;;;;;;;;;;5093120;28;20452;-74
2022/05/19 02:35:06;;;;;;;9.40;8.60;;;;;;;;;;5093289;28;20467;-74
2022/05/19 02:37:33;;;;;;;9.03;8.23;;;;;;;;;;5093023;28;20968;-75
2022/05/19 02:40:01;;;;;;;8.90;8.00;;;;;;;;;;5093184;28;20452;-74
2022/05/19 02:42:28;;;;;;;9.37;8.40;;;;;;;;;;5093334;28;20444;-74
2022/05/19 02:44:55;;;;;;;8.90;7.90;;;;;;;;;;5092917;28;20445;-74
2022/05/19 02:47:22;;;;;;;9.90;8.90;;;;;;;;;;5092697;28;20481;-75
2022/05/19 02:49:50;;;;;;;8.80;8.00;;;;;;;;;;5092827;28;20930;-75
2022/05/19 02:52:18;;;;;;;8.33;7.53;;;;;;;;;;5092892;28;20440;-75
2022/05/19 02:54:45;;;;;;;9.07;8.23;;;;;;;;;;5092940;28;20451;-74
2022/05/19 02:57:13;;;;;;;9.63;8.60;;;;;;;;;;5093692;28;20453;-74
2022/05/19 02:59:40;;;;;;;11.13;9.30;;;;;;;;;;5092746;28;20442;-74
2022/05/19 03:02:07;;;;;;;10.23;9.23;;;;;;;;;;5093498;28;20842;-74
2022/05/19 03:04:34;;;;;;;9.13;8.30;;;;;;;;;;5093046;28;20507;-75
2022/05/19 03:07:01;;;;;;;7.67;6.90;;;;;;;;;;5093799;28;20440;-75
2022/05/19 03:09:30;;;;;;;9.50;8.60;;;;;;;;;;5096436;28;20536;-75
2022/05/19 03:11:57;;;;;;;12.50;9.30;;;;;;;;;;5096393;28;20485;-74
2022/05/19 03:14:24;;;;;;;8.87;8.03;;;;;;;;;;5096277;28;20926;-74
2022/05/19 03:16:51;;;;;;;8.90;8.10;;;;;;;;;;5097070;28;20455;-74
2022/05/19 03:19:20;;;;;;;7.97;7.27;;;;;;;;;;5096484;28;20445;-74
2022/05/19 03:21:48;;;;;;;8.60;7.70;;;;;;;;;;5096109;28;20567;-74
2022/05/19 03:24:15;;;;;;;9.10;8.10;;;;;;;;;;5096399;28;20454;-74
2022/05/19 03:26:43;;;;;;;8.80;7.83;;;;;;;;;;5096463;28;20787;-75
2022/05/19 03:29:11;;;;;;;11.07;8.40;;;;;;;;;;5096351;28;20824;-74
2022/05/19 03:31:38;;;;;;;10.00;8.30;;;;;;;;;;5096116;28;20535;-75
2022/05/19 03:34:05;;;;;;;8.27;7.57;;;;;;;;;;5096510;28;20453;-75
2022/05/19 03:36:33;;;;;;;10.40;8.00;;;;;;;;;;5096329;28;20449;-76
2022/05/19 03:39:00;;;;;;;9.97;7.83;;;;;;;;;;5095889;28;20452;-76
2022/05/19 03:41:27;;;;;;;9.33;8.30;;;;;;;;;;5096034;28;20968;-76
2022/05/19 03:43:56;;;;;;;9.90;8.20;;;;;;;;;;5095720;28;20561;-75
2022/05/19 03:46:23;;;;;;;9.03;7.10;;;;;;;;;;5095776;28;20476;-73
2022/05/19 03:48:50;;;;;;;9.73;8.83;;;;;;;;;;5096287;28;20761;-73
2022/05/19 03:51:19;;;;;;;9.33;6.93;;;;;;;;;;5096406;28;20471;-73
2022/05/19 03:53:46;;;;;;;7.63;7.03;;;;;;;;;;5094889;28;20444;-73
2022/05/19 03:56:14;;;;;;;9.63;8.10;;;;;;;;;;5095083;28;20452;-73
2022/05/19 03:58:41;;;;;;;9.73;7.10;;;;;;;;;;5095439;28;20445;-73
2022/05/19 04:01:09;;;;;;;9.43;7.40;;;;;;;;;;5093938;28;20484;-73
2022/05/19 04:03:37;;;;;;;8.30;7.50;;;;;;;;;;5095222;28;20439;-73
2022/05/19 04:06:04;;;;;;;10.27;8.80;;;;;;;;;;5094782;28;20448;-73
2022/05/19 04:08:32;;;;;;;10.33;6.87;;;;;;;;;;5095213;28;20442;-74
2022/05/19 04:10:59;;;;;;;12.93;8.40;;;;;;;;;;5095451;28;20501;-73
2022/05/19 04:13:27;;;;;;;7.97;7.17;;;;;;;;;;5095288;28;20440;-74
2022/05/19 04:15:54;;;;;;;8.23;7.43;;;;;;;;;;5095189;28;20814;-74
2022/05/19 04:18:23;;;;;;;10.23;7.40;;;;;;;;;;5095190;28;20524;-73
2022/05/19 04:20:50;;;;;;;8.30;7.40;;;;;;;;;;5095338;28;20476;-73
2022/05/19 04:23:17;;;;;;;8.97;8.00;;;;;;;;;;5095012;28;20487;-73
2022/05/19 04:25:45;;;;;;;8.80;6.97;;;;;;;;;;5095228;28;20519;-73
2022/05/19 04:28:12;;;;;;;11.17;7.47;;;;;;;;;;5095480;28;20508;-74
2022/05/19 04:30:41;;;;;;;9.17;8.30;;;;;;;;;;5095443;28;20436;-74
2022/05/19 04:33:08;;;;;;;9.60;8.43;;;;;;;;;;5094605;28;20445;-74
2022/05/19 04:35:37;;;;;;;10.13;7.70;;;;;;;;;;5094810;28;20521;-74
2022/05/19 04:38:07;;;;;;;11.47;8.03;;;;;;;;;;5095904;28;20447;-74
2022/05/19 04:40:36;;;;;;;8.43;7.63;;;;;;;;;;5095195;28;20445;-73
2022/05/19 04:43:04;;;;;;;18.03;11.00;;;;;;;;;;5094696;28;20951;-74
2022/05/19 04:45:31;;;;;;;16.67;10.17;;;;;;;;;;5094602;28;20448;-73
2022/05/19 04:47:58;;;;;;;11.73;10.50;;;;;;;;;;5095195;28;20478;-73
2022/05/19 04:50:25;;;;;;;16.70;8.63;;;;;;;;;;5094491;28;20809;-73
2022/05/19 04:52:54;;;;;;;13.40;8.40;;;;;;;;;;5094542;28;20457;-73
2022/05/19 04:55:21;;;;;;;10.40;8.17;;;;;;;;;;5094251;28;20451;-73
2022/05/19 04:57:48;;;;;;;8.87;8.07;;;;;;;;;;5094658;28;20444;-73
2022/05/19 05:00:16;;;;;;;10.33;6.97;;;;;;;;;;5094621;28;20537;-73
2022/05/19 05:02:43;;;;;;;7.83;7.23;;;;;;;;;;5094214;28;20480;-73
2022/05/19 05:05:11;;;;;;;7.30;6.60;;;;;;;;;;5094452;28;20882;-74
2022/05/19 05:07:38;;;;;;;9.07;7.53;;;;;;;;;;5092634;28;20931;-74
2022/05/19 05:10:07;;;;;;;7.93;6.90;;;;;;;;;;5092963;28;20460;-74
2022/05/19 05:12:34;;;;;;;7.67;6.13;;;;;;;;;;5094068;28;20448;-70
2022/05/19 05:15:02;;;;;;;9.23;7.17;;;;;;;;;;5094045;28;20444;-73
2022/05/19 05:17:29;;;;;;;7.77;6.97;;;;;;;;;;5094275;28;20449;-72
2022/05/19 05:19:56;;;;;;;8.33;7.43;;;;;;;;;;5094355;28;20442;-72
2022/05/19 05:22:23;;;;;;;11.77;8.03;;;;;;;;;;5094111;28;20478;-73
2022/05/19 05:24:50;;;;;;;10.07;7.47;;;;;;;;;;5094261;28;20525;-72
2022/05/19 05:27:19;;;;;;;11.57;7.70;;;;;;;;;;5094254;28;20530;-73
2022/05/19 05:29:46;;;;;;;8.03;7.23;;;;;;;;;;5093803;28;20442;-72
2022/05/19 05:32:13;;;;;;;8.73;6.93;;;;;;;;;;5093902;28;20487;-72
2022/05/19 05:34:41;;;;;;;7.60;6.80;;;;;;;;;;5094351;28;20446;-73
2022/05/19 05:37:08;;;;;;;9.50;6.23;;;;;;;;;;5093997;28;20474;-73
2022/05/19 05:39:35;;;;;;;15.83;6.87;;;;;;;;;;5093647;28;20444;-73
2022/05/19 05:42:04;;;;;;;6.67;6.17;;;;;;;;;;5093533;28;20473;-73
2022/05/19 05:44:34;;;;;;;8.77;6.70;;;;;;;;;;5094158;28;20447;-73
2022/05/19 05:47:01;;;;;;;18.43;7.97;;;;;;;;;;5093568;28;20532;-72
2022/05/19 05:49:29;;;;;;;15.77;6.27;;;;;;;;;;5093866;28;20447;-73
2022/05/19 05:51:56;;;;;;;7.80;6.70;;;;;;;;;;5093698;28;20537;-73
2022/05/19 05:54:24;;;;;;;8.77;5.97;;;;;;;;;;5093492;28;20442;-73
2022/05/19 05:56:52;;;;;;;10.07;5.93;;;;;;;;;;5093720;28;20447;-73
2022/05/19 05:59:19;;;;;;;13.90;6.00;;;;;;;;;;5093678;28;20487;-73
2022/05/19 06:01:47;;;;;;;14.13;6.00;;;;;;;;;;5093673;28;20479;-72
2022/05/19 06:04:15;;;;;;;6.87;5.50;;;;;;;;;;5093602;28;20447;-73
2022/05/19 06:06:45;;;;;;;11.87;5.90;;;;;;;;;;5093104;28;20536;-73
2022/05/19 06:09:13;;;;;;;17.00;7.33;;;;;;;;;;5094077;28;20428;-73
2022/05/19 06:11:41;;;;;;;11.83;5.80;;;;;;;;;;5093401;28;20443;-73
2022/05/19 06:14:08;;;;;;;6.83;6.00;;;;;;;;;;5093523;28;20440;-73
2022/05/19 06:16:35;;;;;;;6.17;5.57;;;;;;;;;;5093557;28;20444;-74
2022/05/19 06:19:04;;;;;;;7.23;5.23;;;;;;;;;;5093492;28;20447;-73
2022/05/19 06:21:34;;;;;;;5.67;4.97;;;;;;;;;;5093200;28;20480;-73
2022/05/19 06:24:02;;;;;;;5.40;4.93;;;;;;;;;;5093446;28;20795;-73
2022/05/19 06:26:32;;;;;;;5.70;5.17;;;;;;;;;;5093368;28;20748;-72
2022/05/19 06:29:00;;;;;;;5.60;4.50;;;;;;;;;;5094251;28;20432;-73
2022/05/19 06:31:27;;;;;;;5.87;4.80;;;;;;;;;;5093338;28;20452;-72
2022/05/19 06:33:54;;;;;;;6.20;5.60;;;;;;;;;;5093410;28;20467;-73
2022/05/19 06:36:23;;;;;;;7.47;5.67;;;;;;;;;;5093212;28;20451;-73
2022/05/19 06:38:50;;;;;;;5.73;5.23;;;;;;;;;;5093014;28;20436;-72
2022/05/19 06:44:02;;;;;;;6.60;5.90;;;;;;;;;;5097052;28;20817;-72
2022/05/19 06:46:29;;;;;;;6.67;6.07;;;;;;;;;;5097264;28;20476;-73
2022/05/19 06:48:57;;;;;;;15.60;11.17;;;;;;;;;;5097140;28;20493;-73
2022/05/19 06:51:26;;;;;;;7.07;6.37;;;;;;;;;;5097113;28;20538;-73
2022/05/19 06:53:53;;;;;;;10.77;6.20;;;;;;;;;;5097099;28;20451;-73
2022/05/19 06:56:20;;;;;;;8.33;7.73;;;;;;;;;;5097089;28;20526;-73
2022/05/19 06:58:47;;;;;;;9.33;5.70;;;;;;;;;;5096648;28;20478;-73
2022/05/19 07:01:14;;;;;;;6.37;5.80;;;;;;;;;;5096531;28;20448;-73
2022/05/19 07:03:42;;;;;;;6.37;5.70;;;;;;;;;;5096829;28;20440;-73
2022/05/19 07:06:09;;;;;;;6.83;5.27;;;;;;;;;;5096839;28;20496;-73
2022/05/19 07:08:38;;;;;;;10.47;6.30;;;;;;;;;;5096386;28;20444;-73
2022/05/19 07:11:06;;;;;;;6.20;5.70;;;;;;;;;;5096787;28;20467;-73
2022/05/19 07:13:33;;;;;;;8.60;6.30;;;;;;;;;;5096526;28;20475;-73
2022/05/19 07:16:00;;;;;;;6.70;6.10;;;;;;;;;;5096690;28;20443;-73
2022/05/19 07:18:28;;;;;;;5.87;5.33;;;;;;;;;;5096529;28;20444;-73
2022/05/19 07:20:54;;;;;;;7.63;5.53;;;;;;;;;;5096351;28;20539;-73
2022/05/19 07:23:24;;;;;;;6.73;5.40;;;;;;;;;;5096101;28;20559;-73
2022/05/19 07:25:54;;;;;;;4.83;4.43;;;;;;;;;;5096725;28;20568;-73
2022/05/19 07:28:22;;;;;;;8.43;6.50;;;;;;;;;;5096111;28;20435;-73
2022/05/19 07:30:49;;;;;;;10.50;5.93;;;;;;;;;;5096838;28;20852;-73
2022/05/19 07:33:17;;;;;;;6.13;5.47;;;;;;;;;;5095971;28;20443;-73
2022/05/19 07:35:46;;;;;;;5.23;4.83;;;;;;;;;;5097069;28;20871;-73
2022/05/19 07:38:14;;;;;;;6.63;5.37;;;;;;;;;;5096147;28;20541;-73
2022/05/19 07:40:41;;;;;;;7.23;5.77;;;;;;;;;;5095910;28;20439;-73
2022/05/19 07:45:55;;;;;;;6.47;5.37;;;;;;;;;;5095726;28;20873;-72
2022/05/19 07:48:22;;;;;;;6.60;5.47;;;;;;;;;;5096034;28;20436;-73
2022/05/19 07:50:49;;;;;;;5.70;5.20;;;;;;;;;;5095955;28;20442;-73
2022/05/19 07:53:16;;;;;;;13.03;5.80;;;;;;;;;;5094828;28;20945;-73
2022/05/19 07:55:44;;;;;;;7.70;5.27;;;;;;;;;;5095848;28;20452;-73
2022/05/19 07:58:13;;;;;;;7.40;5.13;;;;;;;;;;5095696;28;20449;-73
2022/05/19 08:00:40;;;;;;;5.27;4.87;;;;;;;;;;5095771;28;20507;-73
2022/05/19 08:03:07;;;;;;;7.60;5.53;;;;;;;;;;5095274;28;20470;-72
2022/05/19 08:05:35;;;;;;;7.50;5.37;;;;;;;;;;5095229;28;20466;-72
2022/05/19 08:08:02;;;;;;;7.87;6.00;;;;;;;;;;5095284;28;20457;-72
2022/05/19 08:10:29;;;;;;;6.60;5.97;;;;;;;;;;5095471;28;20443;-73
2022/05/19 08:15:45;;;;;;;7.53;5.63;;;;;;;;;;5095302;28;20393;-73
2022/05/19 08:18:14;;;;;;;6.70;5.97;;;;;;;;;;5095496;28;20487;-73
2022/05/19 08:20:43;;;;;;;7.00;5.50;;;;;;;;;;5095171;28;20445;-73
2022/05/19 08:23:12;;;;;;;9.63;5.93;;;;;;;;;;5095286;28;20478;-73
2022/05/19 08:25:40;;;;;;;10.30;5.90;;;;;;;;;;5095877;28;20465;-73
2022/05/19 08:28:08;;;;;;;6.80;6.10;;;;;;;;;;5095736;28;20443;-73
2022/05/19 08:30:36;;;;;;;6.93;6.23;;;;;;;;;;5094973;28;20538;-73
2022/05/19 08:33:07;;;;;;;7.63;5.30;;;;;;;;;;5095661;28;20528;-73
2022/05/19 08:35:34;;;;;;;6.63;5.20;;;;;;;;;;5095113;28;20447;-73
2022/05/19 08:38:01;;;;;;;19.43;6.07;;;;;;;;;;5094724;28;20448;-72
2022/05/19 08:40:29;;;;;;;7.70;6.90;;;;;;;;;;5095252;28;20417;-72
2022/05/19 08:42:58;;;;;;;6.70;5.60;;;;;;;;;;5094632;28;20478;-73
2022/05/19 08:45:29;;;;;;;10.27;6.07;;;;;;;;;;5094739;28;20447;-72
2022/05/19 08:48:01;;;;;;;9.10;5.63;;;;;;;;;;5095167;28;20485;-72
2022/05/19 08:50:32;;;;;;;7.70;6.33;;;;;;;;;;5094688;28;20410;-72
2022/05/19 08:53:00;;;;;;;7.73;6.40;;;;;;;;;;5095343;28;20453;-72
2022/05/19 08:55:28;;;;;;;9.13;6.40;;;;;;;;;;5094480;28;20415;-72
2022/05/19 08:58:03;;;;;;;11.03;5.80;;;;;;;;;;5094955;28;20445;-72
2022/05/19 09:00:34;;;;;;;8.80;5.97;;;;;;;;;;5094689;28;20466;-73
2022/05/19 09:03:06;;;;;;;7.70;6.00;;;;;;;;;;5094685;28;20460;-73
2022/05/19 09:05:42;;;;;;;6.43;5.93;;;;;;;;;;5093834;28;20502;-73
2022/05/19 09:08:15;;;;;;;9.30;5.60;;;;;;;;;;5094425;28;20942;-72
2022/05/19 09:10:54;;;;;;;5.50;5.00;;;;;;;;;;5094621;28;20432;-73
2022/05/19 09:13:31;;;;;;;6.60;5.67;;;;;;;;;;5094153;28;20524;-73
2022/05/19 09:16:00;;;;;;;8.50;7.70;;;;;;;;;;5094258;28;20518;-73
2022/05/19 09:18:31;;;;;;;7.90;5.80;;;;;;;;;;5093986;28;20423;-73
2022/05/19 09:21:00;;;;;;;8.43;5.60;;;;;;;;;;5094075;28;20424;-73
2022/05/19 09:23:28;;;;;;;7.30;5.87;;;;;;;;;;5094208;28;20922;-72
2022/05/19 09:26:15;;;;;;;5.93;5.23;;;;;;;;;;5094275;28;20424;-73
2022/05/19 09:28:45;;;;;;;134.67;16.60;;;;;;;;;;5094353;28;20425;-72
2022/05/19 09:31:14;;;;;;;16.30;7.30;;;;;;;;;;5093984;28;20464;-73
2022/05/19 09:33:44;;;;;;;7.40;6.23;;;;;;;;;;5093704;28;20909;-72
2022/05/19 09:36:15;;;;;;;8.40;5.00;;;;;;;;;;5094885;28;20435;-73
2022/05/19 09:38:46;;;;;;;6.27;5.30;;;;;;;;;;5093741;28;20439;-72
2022/05/19 09:41:23;;;;;;;7.87;5.93;;;;;;;;;;5094080;28;20442;-73
2022/05/19 09:43:51;;;;;;;24.60;6.73;;;;;;;;;;5093963;28;20559;-73
2022/05/19 09:46:18;;;;;;;17.40;6.80;;;;;;;;;;5093662;28;20561;-73
2022/05/19 09:48:47;;;;;;;18.70;6.40;;;;;;;;;;5094682;28;20436;-73
2022/05/19 09:51:17;;;;;;;7.30;6.07;;;;;;;;;;5093726;28;20438;-73
2022/05/19 09:53:48;;;;;;;13.60;6.70;;;;;;;;;;5093522;28;20969;-72
2022/05/19 09:56:17;;;;;;;7.67;6.97;;;;;;;;;;5093736;28;20445;-72
2022/05/19 09:58:45;;;;;;;28.83;10.10;;;;;;;;;;5094110;28;20412;-73
2022/05/19 10:01:18;;;;;;;12.93;7.23;;;;;;;;;;5093680;28;20529;-73
2022/05/19 10:03:47;;;;;;;33.70;7.93;;;;;;;;;;5093870;28;20550;-73
2022/05/19 10:06:20;;;;;;;20.80;7.27;;;;;;;;;;5093298;28;20944;-72
2022/05/19 10:08:48;;;;;;;6.33;5.43;;;;;;;;;;5094092;28;20516;-73
2022/05/19 10:11:22;;;;;;;10.70;7.03;;;;;;;;;;5093288;28;20520;-72
2022/05/19 10:13:49;;;;;;;8.93;5.03;;;;;;;;;;5093504;28;20487;-72
2022/05/19 10:16:21;;;;;;;6.33;5.63;;;;;;;;;;5094416;28;20449;-73
2022/05/19 10:18:56;;;;;;;9.37;6.50;;;;;;;;;;5097566;28;20495;-73
2022/05/19 10:21:38;;;;;;;6.60;6.00;;;;;;;;;;5097794;28;20840;-73
2022/05/19 10:24:15;;;;;;;6.80;5.47;;;;;;;;;;5097608;28;20496;-73
2022/05/19 10:26:46;;;;;;;8.57;6.93;;;;;;;;;;5097630;28;20415;-73
2022/05/19 10:32:19;;;;;;;5.40;4.90;;;;;;;;;;5097519;28;20760;-72
2022/05/19 10:34:52;;;;;;;9.47;7.20;;;;;;;;;;5098066;28;20431;-73
2022/05/19 10:37:28;;;;;;;5.87;5.27;;;;;;;;;;5098110;28;20411;-73
2022/05/19 10:40:13;;;;;;;10.23;7.37;;;;;;;;;;5097535;28;20459;-73
2022/05/19 10:42:44;;;;;;;11.27;6.10;;;;;;;;;;5096901;28;20412;-73
2022/05/19 10:45:17;;;;;;;6.63;5.03;;;;;;;;;;5097058;28;20437;-73
2022/05/19 10:47:48;;;;;;;7.60;5.20;;;;;;;;;;5096806;28;20510;-73
2022/05/19 10:50:22;;;;;;;9.50;4.77;;;;;;;;;;5096968;28;20776;-73
2022/05/19 10:52:59;;;;;;;5.10;4.70;;;;;;;;;;5097832;28;20424;-73
2022/05/19 10:55:29;;;;;;;5.93;5.03;;;;;;;;;;5096738;28;20501;-73
2022/05/19 10:58:05;;;;;;;4.53;4.23;;;;;;;;;;5097106;28;20420;-73
2022/05/19 11:00:36;;;;;;;6.43;4.60;;;;;;;;;;5097115;28;20837;-73
2022/05/19 11:03:20;;;;;;;7.37;4.70;;;;;;;;;;5096689;28;20443;-73
2022/05/19 11:05:59;;;;;;;5.50;4.80;;;;;;;;;;5096575;28;20485;-73
2022/05/19 11:08:37;;;;;;;6.10;5.10;;;;;;;;;;5097033;28;20760;-73
2022/05/19 11:11:08;;;;;;;5.37;4.80;;;;;;;;;;5096530;28;20457;-73
2022/05/19 11:13:42;;;;;;;6.40;4.63;;;;;;;;;;5096957;28;20403;-73
2022/05/19 11:16:14;;;;;;;6.73;4.47;;;;;;;;;;5096965;28;20796;-73
2022/05/19 11:18:46;;;;;;;4.97;4.47;;;;;;;;;;5096257;28;20474;-73
2022/05/19 11:21:15;;;;;;;6.50;5.10;;;;;;;;;;5096721;28;20514;-71
2022/05/19 11:23:47;;;;;;;5.03;4.40;;;;;;;;;;5096592;28;20480;-78
2022/05/19 11:26:25;;;;;;;4.43;3.93;;;;;;;;;;5096464;28;20961;-77
2022/05/19 11:28:57;;;;;;;5.00;4.57;;;;;;;;;;5096089;28;20795;-78
2022/05/19 11:31:35;;;;;;;7.70;4.40;;;;;;;;;;5096616;28;20431;-78
2022/05/19 11:34:05;;;;;;;10.40;4.67;;;;;;;;;;5097092;28;20426;-77
2022/05/19 11:36:37;;;;;;;7.87;5.00;;;;;;;;;;5095680;28;20442;-77
2022/05/19 11:39:10;;;;;;;8.60;5.27;;;;;;;;;;5095730;28;20416;-78
2022/05/19 11:41:38;;;;;;;8.23;4.37;;;;;;;;;;5095387;28;20432;-78
2022/05/19 11:44:11;;;;;;;9.40;4.70;;;;;;;;;;5095433;28;20449;-78
2022/05/19 11:46:42;;;;;;;5.50;5.00;;;;;;;;;;5095573;28;20571;-77
2022/05/19 11:57:42;;;;;;;5.33;4.83;;;;;;;;;;5095423;28;20523;-77
2022/05/19 12:00:11;;;;;;;5.67;4.87;;;;;;;;;;5096541;28;20828;-78
2022/05/19 12:02:41;;;;;;;7.57;4.20;;;;;;;;;;5095761;28;20822;-77
2022/05/19 12:05:11;;;;;;;4.77;4.27;;;;;;;;;;5096631;28;20468;-78
2022/05/19 12:07:43;;;;;;;7.70;4.43;;;;;;;;;;5095378;28;20454;-78
2022/05/19 12:10:13;;;;;;;5.00;4.10;;;;;;;;;;5096135;28;20432;-78
2022/05/19 12:12:41;;;;;;;6.83;4.93;;;;;;;;;;5095479;28;20446;-79
2022/05/19 12:15:17;;;;;;;5.83;4.77;;;;;;;;;;5095259;28;20449;-77
2022/05/19 12:17:46;;;;;;;5.23;4.73;;;;;;;;;;5094859;28;20436;-80
2022/05/19 12:20:32;;;;;;;10.30;4.47;;;;;;;;;;5095559;28;20864;-77
2022/05/19 12:23:11;;;;;;;5.37;4.37;;;;;;;;;;5095232;28;20799;-77
2022/05/19 12:25:40;;;;;;;5.67;4.20;;;;;;;;;;5095513;28;20795;-78
2022/05/19 12:28:25;;;;;;;6.57;4.77;;;;;;;;;;5095212;28;20788;-77
2022/05/19 12:33:52;;;;;;;6.57;4.77;;;;;;;;;;5032714;28;20430;-78
2022/05/19 12:36:25;;;;;;;4.83;4.40;;;;;;;;;;5079727;28;20469;-78
2022/05/19 12:38:53;;;;;;;8.57;5.97;;;;;;;;;;5094505;28;20439;-78
2022/05/19 12:44:30;;;;;;;6.40;4.10;;;;;;;;;;5152726;27;20497;-77
2022/05/19 12:47:05;;;;;;;11.03;4.57;;;;;;;;;;5152078;27;20800;-77
2022/05/19 12:49:35;;;;;;;6.70;4.50;;;;;;;;;;5152743;27;20524;-76
2022/05/19 12:52:03;;;;;;;6.50;4.70;;;;;;;;;;5152057;27;20446;-77
2022/05/19 12:54:33;;;;;;;5.10;3.53;;;;;;;;;;5152038;27;20438;-76
2022/05/19 12:57:15;;;;;;;4.27;3.97;;;;;;;;;;5151649;27;20419;-76
2022/05/19 12:59:49;;;;;;;5.37;4.20;;;;;;;;;;5135577;27;20796;-76
2022/05/19 13:02:22;;;;;;;6.40;4.83;;;;;;;;;;5152583;27;20469;-77
2022/05/19 13:04:52;;;;;;;4.60;4.20;;;;;;;;;;5152384;27;20513;-78
2022/05/19 13:07:22;;;;;;;6.43;4.57;;;;;;;;;;5151931;27;20440;-78
2022/05/19 13:09:55;;;;;;;5.57;4.47;;;;;;;;;;5152414;27;20429;-77
2022/05/19 13:12:24;;;;;;;7.33;4.60;;;;;;;;;;5152276;27;20460;-77
2022/05/19 13:14:55;;;;;;;4.10;3.80;;;;;;;;;;5151573;27;20442;-77
2022/05/19 13:17:26;;;;;;;4.40;4.03;;;;;;;;;;5151459;27;20784;-78
2022/05/19 13:19:53;;;;;;;9.63;4.77;;;;;;;;;;5151669;27;20962;-77
2022/05/19 13:22:22;;;;;;;7.13;3.97;;;;;;;;;;5151577;27;20475;-78
2022/05/19 13:24:49;;;;;;;4.00;3.70;;;;;;;;;;5151545;27;20452;-78
2022/05/19 13:30:23;;;;;;;6.00;4.47;;;;;;;;;;5151699;27;20483;-78
2022/05/19 13:32:51;;;;;;;4.90;3.80;;;;;;;;;;5151871;27;20505;-77
2022/05/19 13:35:19;;;;;;;4.40;3.90;;;;;;;;;;5151220;27;20441;-77
2022/05/19 13:37:48;;;;;;;7.73;4.07;;;;;;;;;;5151338;27;20440;-78
2022/05/19 13:40:17;;;;;;;4.50;4.00;;;;;;;;;;5151172;27;20448;-79
2022/05/19 13:42:45;;;;;;;8.43;3.73;;;;;;;;;;5150430;27;20998;-78
2022/05/19 13:45:19;;;;;;;24.20;5.07;;;;;;;;;;5151528;27;20541;-73
2022/05/19 13:47:47;;;;;;;26.17;3.30;;;;;;;;;;5151102;27;20947;-72
2022/05/19 13:50:18;;;;;;;20.30;3.03;;;;;;;;;;5151415;27;20521;-73
2022/05/19 13:52:50;;;;;;;8.23;2.40;;;;;;;;;;5151254;27;20443;-73
2022/05/19 13:55:25;;;;;;;10.60;3.00;;;;;;;;;;5139656;27;20509;-72
2022/05/19 13:57:53;;;;;;;4.70;2.50;;;;;;;;;;5137069;27;20438;-71
2022/05/19 14:00:23;;;;;;;12.77;2.80;;;;;;;;;;5137890;27;20821;-70
2022/05/19 14:02:51;;;;;;;7.83;2.83;;;;;;;;;;5137047;27;20484;-70
2022/05/19 14:05:22;;;;;;;6.00;2.83;;;;;;;;;;5137068;27;20438;-70
2022/05/19 14:07:50;;;;;;;5.63;2.40;;;;;;;;;;5137730;27;20432;-70
2022/05/19 14:10:18;;;;;;;11.27;3.30;;;;;;;;;;5137193;27;20444;-70
2022/05/19 14:12:47;;;;;;;4.87;3.00;;;;;;;;;;5137025;27;20469;-70
2022/05/19 14:15:21;;;;;;;4.37;3.00;;;;;;;;;;5136827;27;20536;-70
2022/05/19 14:17:53;;;;;;;6.60;2.50;;;;;;;;;;5136701;27;20430;-69
2022/05/19 14:20:21;;;;;;;5.77;3.50;;;;;;;;;;5136814;27;20521;-69
2022/05/19 14:22:49;;;;;;;8.10;3.80;;;;;;;;;;5136620;27;20506;-69
2022/05/19 14:25:20;;;;;;;6.73;2.83;;;;;;;;;;5136566;27;20434;-69
2022/05/19 14:27:47;;;;;;;3.07;2.77;;;;;;;;;;5137040;27;20466;-69
2022/05/19 14:30:16;;;;;;;7.57;3.00;;;;;;;;;;5136460;27;20474;-69
2022/05/19 14:32:54;;;;;;;5.13;2.23;;;;;;;;;;5136684;27;20444;-69
2022/05/19 14:35:22;;;;;;;7.47;2.87;;;;;;;;;;5136400;27;20469;-70
2022/05/19 14:37:52;;;;;;;5.30;2.50;;;;;;;;;;5136413;27;20525;-69
2022/05/19 14:43:06;;;;;;;3.80;2.50;;;;;;;;;;5136479;27;20999;-70
2022/05/19 14:45:35;;;;;;;4.67;2.50;;;;;;;;;;5136585;27;20525;-70
2022/05/19 14:48:04;;;;;;;5.40;2.80;;;;;;;;;;5136108;27;20454;-69
2022/05/19 14:50:32;;;;;;;4.13;2.43;;;;;;;;;;5136397;27;20438;-69
2022/05/19 14:53:02;;;;;;;3.00;2.50;;;;;;;;;;5136092;27;20430;-68
2022/05/19 14:55:32;;;;;;;4.30;2.17;;;;;;;;;;5136666;27;20445;-68
2022/05/19 14:58:01;;;;;;;4.70;2.60;;;;;;;;;;5136614;27;20423;-68
2022/05/19 15:00:29;;;;;;;7.73;2.60;;;;;;;;;;5136257;27;20444;-68
2022/05/19 15:02:57;;;;;;;3.97;2.60;;;;;;;;;;5135381;27;20526;-67
2022/05/19 15:05:26;;;;;;;3.20;2.73;;;;;;;;;;5134515;27;20438;-67
2022/05/19 15:07:53;;;;;;;4.40;2.40;;;;;;;;;;5135604;27;20441;-67
2022/05/19 15:10:23;;;;;;;5.23;2.40;;;;;;;;;;5135872;27;20527;-67
2022/05/19 15:12:50;;;;;;;3.57;2.13;;;;;;;;;;5135681;27;20460;-67
2022/05/19 15:15:18;;;;;;;3.03;2.20;;;;;;;;;;5135930;27;20446;-67
2022/05/19 15:17:45;;;;;;;3.83;2.03;;;;;;;;;;5136185;27;20452;-67
2022/05/19 15:20:14;;;;;;;3.33;2.50;;;;;;;;;;5135862;27;20523;-67
2022/05/19 15:22:42;;;;;;;3.30;2.43;;;;;;;;;;5135480;27;20442;-67